createdAt,value
2022-11-25T00:13:52.401Z,6.3
2022-11-25T00:28:23.746Z,6.4
2022-11-25T00:42:55.884Z,6.7
2022-11-25T00:57:25.519Z,7
2022-11-25T01:11:54.300Z,6.9
2022-11-25T01:26:24.296Z,6.8
2022-11-25T01:40:53.114Z,6.9
2022-11-25T01:55:23.626Z,7
2022-11-25T02:09:54.002Z,6.9
2022-11-25T02:24:23.785Z,6.5
2022-11-25T02:38:52.827Z,6.6
2022-11-25T02:53:23.174Z,6.8
2022-11-25T03:07:53.378Z,7
2022-11-25T03:22:22.792Z,6.9
2022-11-25T03:36:52.571Z,6.8
2022-11-25T03:51:20.075Z,6.9
2022-11-25T04:05:50.466Z,6.9
2022-11-25T04:20:18.672Z,6.9
2022-11-25T04:34:49.374Z,7.1
2022-11-25T04:49:19.867Z,7.1
2022-11-25T05:03:58.029Z,7.3
2022-11-25T05:18:22.891Z,7.4
2022-11-25T05:32:53.174Z,7.4
2022-11-25T05:47:23.656Z,7.4
2022-11-25T06:01:54.261Z,7.5
2022-11-25T06:16:23.263Z,7.5
2022-11-25T06:30:52.328Z,7.5
2022-11-25T06:45:21.954Z,7.5
2022-11-25T06:59:52.861Z,7.5
2022-11-25T07:14:21.970Z,7.5
2022-11-25T07:28:52.179Z,7.5
2022-11-25T07:43:22.423Z,7.7
2022-11-25T07:57:52.640Z,7.8
2022-11-25T08:12:23.072Z,7.8
2022-11-25T08:26:51.828Z,7.8
2022-11-25T08:41:20.595Z,8.1
2022-11-25T08:55:50.543Z,8.2
2022-11-25T09:10:20.665Z,8.3
2022-11-25T09:24:50.279Z,8.3
2022-11-25T09:39:19.354Z,8.4
2022-11-25T09:53:50.405Z,8.6
2022-11-25T10:08:20.013Z,8.6
2022-11-25T10:22:50.349Z,8.9
2022-11-25T10:37:21.660Z,9.3
2022-11-25T10:51:51.137Z,9.5
2022-11-25T11:06:21.292Z,9.8
2022-11-25T11:20:51.135Z,9.8
2022-11-25T11:35:21.473Z,9.9
2022-11-25T11:49:51.953Z,10.1
2022-11-25T12:04:21.859Z,10
2022-11-25T12:18:53.805Z,10
2022-11-25T12:33:22.896Z,10.1
2022-11-25T12:47:50.676Z,10.1
2022-11-25T13:02:22.316Z,10.2
2022-11-25T13:16:54.847Z,10.2
2022-11-25T13:31:21.997Z,10.1
2022-11-25T13:45:52.917Z,10.2
2022-11-25T14:00:20.858Z,10.2
2022-11-25T14:14:50.752Z,10.2
2022-11-25T14:29:20.421Z,10
2022-11-25T14:43:50.841Z,9.9
2022-11-25T14:58:20.639Z,9.7
2022-11-25T15:12:54.181Z,9.5
2022-11-25T15:27:21.456Z,9.4
2022-11-25T15:41:52.174Z,9.5
2022-11-25T15:56:22.722Z,9.4
2022-11-25T16:10:52.899Z,9.4
2022-11-25T16:25:23.484Z,9.4
2022-11-25T16:39:54.310Z,9.4
2022-11-25T16:54:24.311Z,9.4
2022-11-25T17:08:54.099Z,9.4
2022-11-25T17:23:22.907Z,9.4
2022-11-25T17:37:53.291Z,9.3
2022-11-25T17:52:23.357Z,9.3
2022-11-25T18:06:53.099Z,9.3
2022-11-25T18:21:23.343Z,9.4
2022-11-25T18:35:52.706Z,9.3
2022-11-25T18:50:22.831Z,9.3
2022-11-25T19:04:55.429Z,9.2
2022-11-25T19:19:25.651Z,9.1
2022-11-25T19:33:57.032Z,9.1
2022-11-25T19:48:26.759Z,9.1
2022-11-25T20:02:56.993Z,9.1
2022-11-25T20:17:27.031Z,8.8
2022-11-25T20:31:56.576Z,8.9
2022-11-25T20:46:25.769Z,8.8
2022-11-25T21:00:58.557Z,8.7
2022-11-25T21:15:25.883Z,8.6
2022-11-25T21:29:56.299Z,8.7
2022-11-25T21:44:26.198Z,8.6
2022-11-25T21:58:56.685Z,8.7
2022-11-25T22:13:26.757Z,8.8
2022-11-25T22:27:56.754Z,8.9
2022-11-25T22:42:27.250Z,8.9
2022-11-25T22:56:57.892Z,8.7
2022-11-25T23:11:28.179Z,8.7
2022-11-25T23:26:00.277Z,8.7
2022-11-25T23:40:29.870Z,8.9
2022-11-25T23:54:59.500Z,8.7
